TimeCST,TemperatureF,Dew PointF,Humidity,Sea Level PressureIn,VisibilityMPH,Wind Direction,Wind SpeedMPH,Gust SpeedMPH,PrecipitationIn,Events,Conditions,WindDirDegrees,DateUTC
12:03 AM,60.1,60.1,100,30.13,10.0,NNW,8.1,-,0.00,,Overcast,340,2013-12-07 06:03:00
12:56 AM,57.9,57.0,97,30.10,10.0,NNW,8.1,-,0.00,,Overcast,330,2013-12-07 06:56:00
1:10 AM,57.0,57.0,100,30.15,10.0,NNW,11.5,-,0.00,Rain,Light Rain,330,2013-12-07 07:10:00
1:45 AM,54.0,54.0,100,30.15,10.0,NNW,9.2,-,0.00,Rain,Light Rain,340,2013-12-07 07:45:00
1:56 AM,53.1,53.1,100,30.12,10.0,NNW,10.4,-,0.00,Rain,Light Rain,330,2013-12-07 07:56:00
2:06 AM,53.1,52.0,96,30.16,10.0,North,10.4,18.4,0.00,Rain,Light Rain,350,2013-12-07 08:06:00
2:16 AM,52.0,52.0,100,30.16,10.0,NNW,9.2,17.3,0.00,,Overcast,340,2013-12-07 08:16:00
2:44 AM,51.1,51.1,100,30.16,8.0,NNW,9.2,-,0.00,,Overcast,340,2013-12-07 08:44:00
2:56 AM,51.1,51.1,100,30.12,8.0,NNW,8.1,-,0.00,Rain,Light Rain,330,2013-12-07 08:56:00
3:27 AM,50.0,50.0,100,30.17,9.0,NNW,11.5,18.4,0.00,,Overcast,340,2013-12-07 09:27:00
3:36 AM,50.0,48.9,96,30.17,10.0,North,10.4,-,0.00,,Overcast,350,2013-12-07 09:36:00
3:56 AM,48.9,48.9,100,30.14,10.0,NNW,11.5,-,0.00,,Overcast,330,2013-12-07 09:56:00
4:56 AM,48.0,46.9,96,30.15,10.0,North,5.8,19.6,N/A,,Overcast,350,2013-12-07 10:56:00
5:56 AM,46.0,45.0,96,30.19,10.0,North,9.2,-,N/A,,Overcast,360,2013-12-07 11:56:00
6:56 AM,46.0,45.0,96,30.20,8.0,North,9.2,-,0.00,,Overcast,350,2013-12-07 12:56:00
7:56 AM,46.0,45.0,96,30.22,10.0,North,6.9,-,N/A,,Overcast,360,2013-12-07 13:56:00
8:56 AM,46.0,44.1,93,30.24,10.0,North,8.1,-,N/A,,Overcast,10,2013-12-07 14:56:00
9:56 AM,48.0,45.0,89,30.24,10.0,North,11.5,19.6,N/A,,Overcast,10,2013-12-07 15:56:00
10:56 AM,46.9,45.0,93,30.25,10.0,Variable,6.9,-,N/A,,Overcast,0,2013-12-07 16:56:00
11:56 AM,46.9,45.0,93,30.22,4.0,Variable,5.8,17.3,N/A,,Overcast,0,2013-12-07 17:56:00
12:56 PM,46.9,46.0,97,30.20,10.0,Variable,5.8,-,0.00,,Overcast,0,2013-12-07 18:56:00
1:56 PM,46.9,46.0,97,30.19,10.0,North,9.2,-,N/A,,Overcast,10,2013-12-07 19:56:00
2:56 PM,46.9,46.0,97,30.19,9.0,North,5.8,-,N/A,,Overcast,360,2013-12-07 20:56:00
3:56 PM,46.9,46.0,97,30.19,9.0,North,5.8,-,N/A,,Overcast,360,2013-12-07 21:56:00
4:56 PM,46.0,45.0,96,30.20,8.0,North,6.9,-,N/A,,Overcast,10,2013-12-07 22:56:00
5:10 PM,46.0,46.0,100,30.23,7.0,Variable,5.8,-,N/A,,Overcast,0,2013-12-07 23:10:00
5:56 PM,46.0,46.0,100,30.21,8.0,North,8.1,-,0.00,,Overcast,10,2013-12-07 23:56:00
6:13 PM,46.0,45.0,96,30.24,8.0,Variable,6.9,-,N/A,,Overcast,0,2013-12-08 00:13:00
6:56 PM,46.0,45.0,96,30.21,7.0,NNE,6.9,-,N/A,,Overcast,20,2013-12-08 00:56:00
7:00 PM,-9999,-9999,N/A,-9999,-9999.0,North,-9999.0,-,N/A,,Unknown,0,2013-12-08 01:00:00
7:30 PM,46.0,45.0,96,30.25,7.0,Variable,4.6,-,N/A,,Overcast,0,2013-12-08 01:30:00
7:56 PM,46.0,45.0,96,30.22,7.0,Variable,4.6,-,N/A,,Overcast,0,2013-12-08 01:56:00
8:56 PM,46.0,46.0,100,30.20,3.0,NNE,4.6,-,N/A,,Overcast,30,2013-12-08 02:56:00
9:12 PM,46.0,46.0,100,30.24,3.0,NNE,5.8,-,N/A,,Overcast,20,2013-12-08 03:12:00
9:56 PM,46.0,46.0,100,30.21,4.0,Variable,3.5,-,N/A,,Overcast,0,2013-12-08 03:56:00
10:26 PM,46.0,46.0,100,30.24,2.0,NNE,4.6,-,N/A,,Overcast,20,2013-12-08 04:26:00
10:56 PM,46.0,46.0,100,30.21,2.0,NE,4.6,-,N/A,,Overcast,40,2013-12-08 04:56:00
11:21 PM,46.0,46.0,100,30.24,1.5,Variable,4.6,-,N/A,,Overcast,0,2013-12-08 05:21:00
11:56 PM,46.9,46.9,100,30.19,1.2,Variable,3.5,-,N/A,,Overcast,0,2013-12-08 05:56:00